Time;durP1;ratioP1;P1;durP2;ratioP2;P2;SDS_P1;SDS_P2;PMS_P1;PMS_P2;Temp;Humidity;BMP_temperature;BMP_pressure;BME280_temperature;BME280_humidity;BME280_pressure;Samples;Min_cycle;Max_cycle;Signal;HPM_P1;HPM_P2
2022/02/28 00:00:12;;;;;;;9.90;8.33;;;1.10;99.90;;;;;;5050996;28;20177;-67
2022/02/28 00:02:38;;;;;;;12.50;8.90;;;1.10;99.90;;;;;;5047932;28;20165;-66
2022/02/28 00:05:04;;;;;;;10.40;7.80;;;1.10;99.90;;;;;;5033183;28;20454;-68
2022/02/28 00:07:29;;;;;;;11.93;8.70;;;1.10;99.90;;;;;;5057002;28;20184;-65
2022/02/28 00:09:55;;;;;;;12.23;9.40;;;1.10;99.90;;;;;;5058519;28;20181;-66
2022/02/28 00:12:20;;;;;;;10.07;7.63;;;1.00;99.90;;;;;;5054953;28;20173;-66
2022/02/28 00:14:46;;;;;;;11.60;8.70;;;0.90;99.90;;;;;;5050395;28;20240;-66
2022/02/28 00:17:11;;;;;;;14.27;9.47;;;0.90;99.90;;;;;;5051227;28;20189;-66
2022/02/28 00:19:37;;;;;;;11.10;8.70;;;0.80;99.90;;;;;;5051322;28;20176;-66
2022/02/28 00:22:03;;;;;;;12.23;8.87;;;0.70;99.90;;;;;;5051672;28;20185;-67
2022/02/28 00:24:28;;;;;;;10.77;7.90;;;0.70;99.90;;;;;;5050765;28;20338;-67
2022/02/28 00:26:54;;;;;;;10.67;8.10;;;0.70;99.90;;;;;;5058378;28;20431;-66
2022/02/28 00:29:19;;;;;;;14.00;8.27;;;0.70;99.90;;;;;;5050880;28;20181;-67
2022/02/28 00:31:45;;;;;;;9.37;8.27;;;0.70;99.90;;;;;;5051313;28;20216;-65
2022/02/28 00:34:10;;;;;;;12.20;8.00;;;0.60;99.90;;;;;;5050879;28;20220;-66
2022/02/28 00:36:36;;;;;;;17.33;8.90;;;0.60;99.90;;;;;;5050514;28;20174;-66
2022/02/28 00:39:01;;;;;;;10.40;7.60;;;0.70;99.90;;;;;;5049785;28;20204;-65
2022/02/28 00:41:27;;;;;;;10.83;9.20;;;0.60;99.90;;;;;;5051431;28;20181;-66
2022/02/28 00:43:52;;;;;;;10.67;8.77;;;0.60;99.90;;;;;;5050995;28;20624;-66
2022/02/28 00:46:18;;;;;;;9.33;7.70;;;0.60;99.90;;;;;;5051115;28;20272;-67
2022/02/28 00:48:43;;;;;;;10.80;8.53;;;0.50;99.90;;;;;;5051243;28;20190;-67
2022/02/28 00:51:09;;;;;;;11.83;8.53;;;0.50;99.90;;;;;;5051013;28;20240;-67
2022/02/28 00:56:24;;;;;;;10.70;8.83;;;0.40;99.90;;;;;;5049696;28;20192;-66
2022/02/28 00:58:50;;;;;;;8.73;7.80;;;0.40;99.90;;;;;;5050765;28;20432;-68
2022/02/28 01:01:15;;;;;;;16.50;8.63;;;0.30;99.90;;;;;;5051174;28;20185;-66
2022/02/28 01:03:41;;;;;;;11.57;9.00;;;0.30;99.90;;;;;;5050711;28;20206;-67
2022/02/28 01:06:06;;;;;;;12.10;8.97;;;0.30;99.90;;;;;;5050478;28;20193;-67
2022/02/28 01:08:32;;;;;;;11.10;8.30;;;0.30;99.90;;;;;;5050953;28;20177;-66
2022/02/28 01:10:58;;;;;;;14.77;8.87;;;0.20;99.90;;;;;;5050772;28;20198;-66
2022/02/28 01:13:24;;;;;;;13.23;8.70;;;0.20;99.90;;;;;;5050808;28;21004;-66
2022/02/28 01:15:49;;;;;;;9.03;7.80;;;0.20;99.90;;;;;;5050554;28;20181;-67
2022/02/28 01:18:15;;;;;;;11.37;8.27;;;0.10;99.90;;;;;;5051037;28;20174;-66
2022/02/28 01:20:41;;;;;;;10.97;8.60;;;0.10;99.90;;;;;;5050491;28;20185;-66
2022/02/28 01:23:07;;;;;;;12.47;10.10;;;0.10;99.90;;;;;;5044409;28;20793;-66
2022/02/28 01:25:32;;;;;;;15.90;9.50;;;0.00;99.90;;;;;;5050424;28;20509;-66
2022/02/28 01:27:58;;;;;;;13.13;10.03;;;0.00;99.90;;;;;;5056233;28;20190;-67
2022/02/28 01:30:24;;;;;;;17.10;10.87;;;0.00;99.90;;;;;;5054305;28;20262;-66
2022/02/28 01:32:49;;;;;;;11.80;8.10;;;0.00;99.90;;;;;;5054000;28;20173;-67
2022/02/28 01:35:15;;;;;;;12.73;10.20;;;0.00;99.90;;;;;;5053397;28;20214;-66
2022/02/28 01:37:42;;;;;;;12.67;8.20;;;0.00;99.90;;;;;;5054277;28;20189;-67
2022/02/28 01:40:11;;;;;;;16.00;9.47;;;-0.10;99.90;;;;;;5055035;28;20489;-66
2022/02/28 01:42:37;;;;;;;14.63;9.30;;;-0.10;99.90;;;;;;5055706;28;20485;-66
2022/02/28 01:45:03;;;;;;;11.70;10.50;;;-0.10;99.90;;;;;;5054322;28;20456;-65
2022/02/28 01:47:29;;;;;;;14.70;9.57;;;-0.10;99.90;;;;;;5054892;28;20178;-66
2022/02/28 01:49:54;;;;;;;11.43;9.73;;;-0.10;99.90;;;;;;5054523;28;20428;-67
2022/02/28 01:52:24;;;;;;;18.90;9.90;;;-0.10;99.90;;;;;;5036797;28;20209;-66
2022/02/28 01:54:50;;;;;;;11.67;9.23;;;-0.10;99.90;;;;;;5054523;28;20204;-66
2022/02/28 01:57:16;;;;;;;11.80;9.10;;;-0.10;99.90;;;;;;5053642;28;20518;-67
2022/02/28 01:59:42;;;;;;;12.43;9.70;;;-0.20;99.90;;;;;;5053845;28;20239;-66
2022/02/28 02:02:08;;;;;;;13.33;10.80;;;-0.20;99.90;;;;;;5053751;28;20435;-67
2022/02/28 02:04:35;;;;;;;12.90;8.80;;;-0.20;99.90;;;;;;5053773;28;20979;-67
2022/02/28 02:07:00;;;;;;;15.33;8.13;;;-0.20;99.90;;;;;;5053332;28;20185;-65
2022/02/28 02:09:26;;;;;;;10.63;9.27;;;-0.20;99.90;;;;;;5053569;28;20880;-66
2022/02/28 02:11:52;;;;;;;14.23;9.20;;;-0.30;99.90;;;;;;5053617;28;20208;-66
2022/02/28 02:14:17;;;;;;;12.00;8.30;;;-0.30;99.90;;;;;;5052819;28;20280;-65
2022/02/28 02:16:43;;;;;;;11.97;8.40;;;-0.30;99.90;;;;;;5053046;28;20698;-66
2022/02/28 02:19:09;;;;;;;10.30;8.20;;;-0.30;99.90;;;;;;5053368;28;20174;-67
2022/02/28 02:21:35;;;;;;;12.07;8.13;;;-0.30;99.90;;;;;;5041183;28;20182;-66
2022/02/28 02:24:01;;;;;;;16.23;11.10;;;-0.30;99.90;;;;;;5053338;28;20452;-66
2022/02/28 02:26:26;;;;;;;14.30;10.23;;;-0.40;99.90;;;;;;5053012;28;20447;-67
2022/02/28 02:28:52;;;;;;;16.47;9.10;;;-0.40;99.90;;;;;;5053286;28;20651;-66
2022/02/28 02:31:18;;;;;;;11.43;10.20;;;-0.40;99.90;;;;;;5053461;28;20556;-67
2022/02/28 02:33:43;;;;;;;13.20;9.87;;;-0.40;99.90;;;;;;5053094;28;20217;-67
2022/02/28 02:36:09;;;;;;;12.23;9.07;;;-0.50;99.90;;;;;;5052701;28;20177;-67
2022/02/28 02:38:37;;;;;;;13.03;9.60;;;-0.50;99.90;;;;;;5052783;28;20182;-66
2022/02/28 02:41:04;;;;;;;15.47;9.70;;;-0.50;99.90;;;;;;5052405;28;20579;-67
2022/02/28 02:43:30;;;;;;;12.00;9.47;;;-0.50;99.90;;;;;;5053160;28;20490;-67
2022/02/28 02:45:56;;;;;;;12.30;8.67;;;-0.50;99.90;;;;;;5052716;28;20431;-66
2022/02/28 02:48:24;;;;;;;11.10;9.47;;;-0.50;99.90;;;;;;5052619;28;20455;-66
2022/02/28 02:50:51;;;;;;;13.60;9.20;;;-0.50;99.90;;;;;;5052338;28;20194;-68
2022/02/28 02:53:16;;;;;;;11.77;9.17;;;-0.50;99.90;;;;;;5052818;28;20431;-66
2022/02/28 02:55:44;;;;;;;12.53;8.97;;;-0.60;99.90;;;;;;5051766;28;20479;-67
2022/02/28 02:58:14;;;;;;;12.27;9.23;;;-0.70;99.90;;;;;;5051982;28;20169;-66
2022/02/28 03:00:42;;;;;;;10.33;7.90;;;-0.70;99.90;;;;;;5052883;28;20832;-67
2022/02/28 03:03:09;;;;;;;13.07;9.90;;;-0.70;99.90;;;;;;5052402;28;20941;-66
2022/02/28 03:05:35;;;;;;;10.80;8.30;;;-0.70;99.90;;;;;;5052392;28;20462;-66
2022/02/28 03:08:00;;;;;;;10.80;8.80;;;-0.70;99.90;;;;;;5052687;28;20813;-66
2022/02/28 03:10:26;;;;;;;16.03;8.30;;;-0.70;99.90;;;;;;5052579;28;20251;-66
2022/02/28 03:12:51;;;;;;;9.90;7.63;;;-0.70;99.90;;;;;;5052600;28;20615;-67
2022/02/28 03:15:17;;;;;;;16.77;9.70;;;-0.70;99.90;;;;;;5052132;28;20197;-67
2022/02/28 03:17:42;;;;;;;14.30;10.77;;;-0.80;99.90;;;;;;5052520;28;20239;-66
2022/02/28 03:20:09;;;;;;;11.83;8.93;;;-0.80;99.90;;;;;;5052236;28;20178;-67
2022/02/28 03:22:34;;;;;;;13.40;9.50;;;-0.80;99.90;;;;;;5051457;28;20563;-67
2022/02/28 03:25:00;;;;;;;11.27;9.20;;;-0.70;99.90;;;;;;5052021;28;20456;-67
2022/02/28 03:27:25;;;;;;;13.40;9.57;;;-0.70;99.90;;;;;;5051942;28;20194;-67
2022/02/28 03:29:52;;;;;;;13.90;8.10;;;-0.70;99.90;;;;;;5052088;28;20600;-68
2022/02/28 03:32:18;;;;;;;12.83;9.57;;;-0.80;99.90;;;;;;5051930;28;20211;-67
2022/02/28 03:34:43;;;;;;;17.50;9.53;;;-0.80;99.90;;;;;;5051595;28;20555;-67
2022/02/28 03:37:09;;;;;;;15.40;9.83;;;-0.80;99.90;;;;;;5052322;28;20173;-67
2022/02/28 03:39:34;;;;;;;18.33;11.27;;;-0.80;99.90;;;;;;5051651;28;20185;-67
2022/02/28 03:42:00;;;;;;;13.77;9.00;;;-0.80;99.90;;;;;;5051892;28;20194;-68
2022/02/28 03:44:25;;;;;;;19.60;9.90;;;-0.80;99.90;;;;;;5051519;28;20197;-67
2022/02/28 03:46:51;;;;;;;13.83;8.93;;;-0.90;99.90;;;;;;5051721;28;20193;-67
2022/02/28 03:49:18;;;;;;;13.23;10.07;;;-0.90;99.90;;;;;;5051514;28;20184;-67
2022/02/28 03:51:44;;;;;;;14.67;11.23;;;-0.90;99.90;;;;;;5051416;28;20470;-66
2022/02/28 03:54:11;;;;;;;16.60;10.40;;;-1.00;99.90;;;;;;5052014;28;20816;-66
2022/02/28 03:56:40;;;;;;;13.90;11.27;;;-1.00;99.90;;;;;;5051438;28;20586;-68
2022/02/28 03:59:06;;;;;;;14.93;11.17;;;-1.00;99.90;;;;;;5051492;28;20444;-67
2022/02/28 04:01:32;;;;;;;20.63;14.40;;;-1.10;99.90;;;;;;5051801;28;20539;-67
2022/02/28 04:03:57;;;;;;;16.83;10.13;;;-1.10;99.90;;;;;;5051179;28;20543;-66
2022/02/28 04:06:23;;;;;;;16.67;11.57;;;-1.00;99.90;;;;;;5051398;28;20260;-67
2022/02/28 04:08:49;;;;;;;20.40;10.00;;;-1.00;99.90;;;;;;5034122;28;20181;-67
2022/02/28 04:11:14;;;;;;;13.67;9.70;;;-1.00;99.90;;;;;;5051621;28;20681;-68
2022/02/28 04:13:40;;;;;;;10.17;8.90;;;-1.10;99.90;;;;;;5033669;28;20189;-67
2022/02/28 04:16:06;;;;;;;15.47;9.70;;;-1.10;99.90;;;;;;5056472;28;20177;-68
2022/02/28 04:18:31;;;;;;;12.60;9.67;;;-1.10;99.90;;;;;;5056232;28;20184;-67
2022/02/28 04:20:57;;;;;;;10.20;7.83;;;-1.10;99.90;;;;;;5051285;28;20223;-67
2022/02/28 04:23:23;;;;;;;11.77;8.13;;;-1.20;99.90;;;;;;5051058;28;20177;-66
2022/02/28 04:25:49;;;;;;;12.10;8.70;;;-1.20;99.90;;;;;;5051038;28;20439;-67
2022/02/28 04:28:14;;;;;;;15.43;10.03;;;-1.20;99.90;;;;;;5056710;28;20947;-67
2022/02/28 04:30:40;;;;;;;12.37;8.80;;;-1.20;99.90;;;;;;5051236;28;20209;-66
2022/02/28 04:33:05;;;;;;;13.00;9.40;;;-1.20;99.90;;;;;;5051254;28;20264;-68
2022/02/28 04:35:31;;;;;;;13.20;10.40;;;-1.20;99.90;;;;;;5051154;28;20486;-66
2022/02/28 04:37:57;;;;;;;12.50;9.40;;;-1.30;99.90;;;;;;5051402;28;20196;-65
2022/02/28 04:40:23;;;;;;;14.87;10.67;;;-1.30;99.90;;;;;;5051128;28;20247;-65
2022/02/28 04:42:48;;;;;;;10.60;8.87;;;-1.30;99.90;;;;;;5051382;28;20209;-65
2022/02/28 04:45:14;;;;;;;15.23;9.60;;;-1.20;99.90;;;;;;5050666;28;20205;-70
2022/02/28 04:47:39;;;;;;;18.47;10.43;;;-1.20;99.90;;;;;;5050634;28;20185;-65
2022/02/28 04:50:05;;;;;;;11.10;8.20;;;-1.20;99.90;;;;;;5050766;28;20178;-65
2022/02/28 04:52:31;;;;;;;13.80;9.93;;;-1.20;99.90;;;;;;5051339;28;20217;-66
2022/02/28 04:54:56;;;;;;;13.17;9.00;;;-1.20;99.90;;;;;;5051034;28;20201;-66
2022/02/28 04:57:22;;;;;;;11.70;9.17;;;-1.20;99.90;;;;;;5050797;28;20166;-65
2022/02/28 04:59:47;;;;;;;13.07;8.93;;;-1.30;99.90;;;;;;5051622;28;20228;-65
2022/02/28 05:02:13;;;;;;;16.47;12.97;;;-1.40;99.90;;;;;;5054695;28;20173;-65
2022/02/28 05:04:38;;;;;;;15.97;10.90;;;-1.40;99.90;;;;;;5055216;28;20197;-65
2022/02/28 05:07:04;;;;;;;13.30;9.00;;;-1.40;99.90;;;;;;5065954;28;20246;-65
2022/02/28 05:09:29;;;;;;;11.43;9.33;;;-1.50;99.90;;;;;;5055115;28;20586;-65
2022/02/28 05:11:55;;;;;;;12.07;8.83;;;-1.50;99.90;;;;;;5054751;28;20205;-66
2022/02/28 05:14:21;;;;;;;13.70;9.80;;;-1.40;99.90;;;;;;5054846;28;20201;-65
2022/02/28 05:16:46;;;;;;;16.17;10.30;;;-1.40;99.90;;;;;;5054259;28;20299;-65
2022/02/28 05:19:12;;;;;;;12.07;9.80;;;-1.40;99.90;;;;;;5054334;28;20235;-65
2022/02/28 05:21:37;;;;;;;14.40;9.90;;;-1.40;99.90;;;;;;5054933;28;20173;-65
2022/02/28 05:24:03;;;;;;;14.53;9.87;;;-1.40;99.90;;;;;;5054699;28;20551;-65
2022/02/28 05:26:28;;;;;;;11.97;9.13;;;-1.40;99.90;;;;;;5054308;28;20174;-65
2022/02/28 05:28:54;;;;;;;11.60;9.73;;;-1.40;99.90;;;;;;5054646;28;20531;-65
2022/02/28 05:31:19;;;;;;;13.63;9.30;;;-1.50;99.90;;;;;;5063147;28;20667;-65
2022/02/28 05:33:45;;;;;;;13.23;9.53;;;-1.50;99.90;;;;;;5054157;28;20690;-65
2022/02/28 05:36:11;;;;;;;12.33;9.13;;;-1.50;99.90;;;;;;5053862;28;20174;-65
2022/02/28 05:38:37;;;;;;;14.70;9.90;;;-1.60;99.90;;;;;;5054460;28;20172;-65
2022/02/28 05:41:02;;;;;;;11.97;9.57;;;-1.60;99.90;;;;;;5054066;28;20181;-65
2022/02/28 05:43:28;;;;;;;12.83;9.23;;;-1.60;99.90;;;;;;5054296;28;20807;-65
2022/02/28 05:45:54;;;;;;;16.20;10.43;;;-1.60;99.90;;;;;;5053685;28;20254;-66
2022/02/28 05:48:19;;;;;;;13.07;9.17;;;-1.60;99.90;;;;;;5054402;28;20181;-65
2022/02/28 05:50:45;;;;;;;16.47;10.90;;;-1.60;99.90;;;;;;5053898;28;20654;-65
2022/02/28 05:53:10;;;;;;;10.93;8.73;;;-1.60;99.90;;;;;;5054287;28;20193;-66
2022/02/28 05:55:36;;;;;;;13.47;10.00;;;-1.60;99.90;;;;;;5053405;28;20185;-66
2022/02/28 05:58:03;;;;;;;15.73;10.17;;;-1.50;99.90;;;;;;5053909;28;20235;-66
2022/02/28 06:00:28;;;;;;;14.00;10.63;;;-1.50;99.90;;;;;;5053174;28;20192;-66
2022/02/28 06:02:54;;;;;;;16.47;10.33;;;-1.50;99.90;;;;;;5054706;28;20948;-66
2022/02/28 06:05:20;;;;;;;12.63;10.33;;;-1.40;99.90;;;;;;5054024;28;20193;-66
2022/02/28 06:07:47;;;;;;;16.23;10.10;;;-1.40;99.90;;;;;;5054126;28;20169;-66
2022/02/28 06:10:12;;;;;;;16.67;10.33;;;-1.40;99.90;;;;;;5052571;28;20268;-66
2022/02/28 06:12:38;;;;;;;15.27;10.20;;;-1.40;99.90;;;;;;5052973;28;20907;-66
2022/02/28 06:15:03;;;;;;;15.87;11.03;;;-1.50;99.90;;;;;;5035583;28;20251;-65
2022/02/28 06:17:29;;;;;;;17.30;11.33;;;-1.40;99.90;;;;;;5053724;28;20174;-65
2022/02/28 06:19:55;;;;;;;16.10;12.20;;;-1.40;99.90;;;;;;5053778;28;20424;-65
2022/02/28 06:22:21;;;;;;;13.20;10.40;;;-1.40;99.90;;;;;;5053532;28;20185;-66
2022/02/28 06:24:46;;;;;;;20.27;11.80;;;-1.40;99.90;;;;;;5053490;28;20674;-66
2022/02/28 06:27:12;;;;;;;20.30;12.60;;;-1.40;99.90;;;;;;5052886;28;20182;-66
2022/02/28 06:29:40;;;;;;;18.70;12.13;;;-1.40;99.90;;;;;;5035711;28;20181;-66
2022/02/28 06:32:06;;;;;;;15.90;11.67;;;-1.40;99.90;;;;;;5053028;28;20193;-65
2022/02/28 06:34:31;;;;;;;17.47;11.90;;;-1.30;99.90;;;;;;5053119;28;20472;-66
2022/02/28 06:36:58;;;;;;;24.10;13.27;;;-1.20;99.90;;;;;;5052724;28;20454;-66
2022/02/28 06:39:25;;;;;;;18.53;12.50;;;-1.10;99.90;;;;;;5052612;28;20173;-66
2022/02/28 06:41:51;;;;;;;15.87;12.13;;;-1.00;99.90;;;;;;5053075;28;20469;-65
2022/02/28 06:44:17;;;;;;;20.60;11.90;;;-0.70;99.90;;;;;;5053051;28;20475;-65
2022/02/28 06:46:42;;;;;;;16.87;11.47;;;-0.50;99.90;;;;;;5052867;28;20188;-66
2022/02/28 06:49:08;;;;;;;20.67;12.23;;;-0.30;99.90;;;;;;5053016;28;20186;-65
2022/02/28 06:51:33;;;;;;;15.03;10.90;;;-0.10;99.90;;;;;;5052781;28;20631;-65
2022/02/28 06:53:59;;;;;;;18.63;12.73;;;0.30;99.90;;;;;;5052388;28;20189;-65
2022/02/28 06:56:24;;;;;;;16.73;11.27;;;0.50;99.90;;;;;;5052647;28;20631;-65
2022/02/28 06:58:50;;;;;;;16.60;12.70;;;0.80;99.90;;;;;;5052344;28;20166;-65
2022/02/28 07:01:15;;;;;;;16.37;13.10;;;1.10;99.90;;;;;;5064327;28;20567;-65
2022/02/28 07:03:41;;;;;;;25.23;17.07;;;1.40;99.90;;;;;;5052116;28;20201;-66
2022/02/28 07:06:07;;;;;;;27.10;19.10;;;1.50;99.90;;;;;;5052092;28;20205;-66
2022/02/28 07:08:34;;;;;;;25.03;17.73;;;1.80;99.90;;;;;;5034708;28;20197;-66
2022/02/28 07:10:59;;;;;;;25.30;17.33;;;2.00;99.90;;;;;;5037009;28;20197;-66
2022/02/28 07:13:25;;;;;;;26.83;16.20;;;2.30;99.90;;;;;;5052502;28;20997;-66
2022/02/28 07:15:52;;;;;;;24.60;16.70;;;2.60;99.90;;;;;;5053227;28;20169;-66
2022/02/28 07:18:17;;;;;;;21.07;15.77;;;2.90;99.90;;;;;;5034468;28;20515;-66
2022/02/28 07:20:43;;;;;;;31.53;16.70;;;3.20;99.90;;;;;;5052310;28;20621;-67
2022/02/28 07:23:09;;;;;;;30.77;18.77;;;3.40;99.90;;;;;;5051840;28;20178;-67
2022/02/28 07:25:35;;;;;;;23.87;15.63;;;3.50;99.90;;;;;;5052152;28;20818;-67
2022/02/28 07:28:01;;;;;;;24.80;15.03;;;3.40;99.90;;;;;;5052379;28;20193;-67
2022/02/28 07:30:27;;;;;;;24.97;19.13;;;3.20;99.90;;;;;;5050005;28;20182;-67
2022/02/28 07:32:52;;;;;;;29.47;17.70;;;3.20;99.90;;;;;;5048955;28;20728;-68
2022/02/28 07:35:18;;;;;;;22.90;15.77;;;3.30;99.90;;;;;;5049899;28;20506;-68
2022/02/28 07:37:44;;;;;;;23.73;15.80;;;3.40;99.90;;;;;;5048147;28;20185;-68
2022/02/28 07:40:11;;;;;;;28.00;17.23;;;3.50;99.90;;;;;;5026237;28;20443;-68
2022/02/28 07:42:37;;;;;;;18.97;14.80;;;3.60;99.90;;;;;;5038232;28;20587;-68
2022/02/28 07:45:05;;;;;;;19.30;14.10;;;3.90;99.90;;;;;;5050035;28;20478;-68
2022/02/28 07:47:30;;;;;;;16.97;13.77;;;4.10;99.90;;;;;;5050309;28;20428;-68
2022/02/28 07:49:56;;;;;;;20.93;13.93;;;4.40;99.90;;;;;;5048024;28;20796;-68
2022/02/28 07:52:21;;;;;;;23.03;14.13;;;4.70;99.90;;;;;;5051198;28;20201;-68
2022/02/28 07:54:47;;;;;;;16.60;14.57;;;4.80;99.90;;;;;;5051502;28;20678;-69
2022/02/28 07:57:13;;;;;;;14.47;12.93;;;4.90;99.90;;;;;;5048261;28;20173;-67
2022/02/28 07:59:38;;;;;;;16.47;12.10;;;5.20;99.90;;;;;;5048187;28;20634;-67
2022/02/28 08:02:04;;;;;;;29.87;13.80;;;5.50;99.90;;;;;;5051785;28;20469;-67
2022/02/28 08:04:29;;;;;;;20.90;13.10;;;5.70;99.90;;;;;;5051561;28;20205;-67
2022/02/28 08:06:55;;;;;;;14.97;11.97;;;5.90;99.90;;;;;;5051210;28;20244;-67
2022/02/28 08:09:22;;;;;;;15.27;11.90;;;6.10;99.90;;;;;;5047634;28;20208;-67
2022/02/28 08:11:47;;;;;;;19.47;13.70;;;6.20;99.90;;;;;;5051263;28;20193;-67
2022/02/28 08:14:13;;;;;;;25.53;12.50;;;6.40;99.90;;;;;;5051561;28;20458;-67
2022/02/28 08:16:38;;;;;;;19.30;13.30;;;6.80;99.90;;;;;;5051314;28;20170;-67
2022/02/28 08:19:04;;;;;;;16.07;13.30;;;7.00;99.90;;;;;;5055333;28;20170;-68
2022/02/28 08:21:30;;;;;;;16.83;12.40;;;7.10;99.00;;;;;;5051017;28;20181;-68
2022/02/28 08:23:55;;;;;;;22.20;14.10;;;7.20;98.70;;;;;;5046037;28;20209;-67
2022/02/28 08:26:21;;;;;;;16.30;12.70;;;7.50;97.50;;;;;;5046245;28;20239;-67
2022/02/28 08:28:46;;;;;;;20.47;12.47;;;7.80;96.40;;;;;;5043863;28;20189;-67
2022/02/28 08:31:12;;;;;;;18.50;14.40;;;8.20;96.00;;;;;;5047388;28;20208;-67
2022/02/28 08:33:37;;;;;;;16.63;13.30;;;8.20;94.50;;;;;;5047644;28;20166;-67
2022/02/28 08:36:03;;;;;;;19.73;12.90;;;8.70;93.80;;;;;;5050693;28;20188;-67
2022/02/28 08:38:29;;;;;;;16.50;13.00;;;9.00;92.90;;;;;;5048751;28;20884;-67
2022/02/28 08:40:54;;;;;;;16.90;12.20;;;9.10;91.20;;;;;;5051105;28;20181;-67
2022/02/28 08:43:20;;;;;;;15.20;11.50;;;9.30;90.30;;;;;;5052094;28;20650;-67
2022/02/28 08:45:45;;;;;;;14.43;12.90;;;9.40;89.20;;;;;;5051704;28;20181;-67
2022/02/28 08:48:11;;;;;;;14.70;13.13;;;9.80;88.00;;;;;;5050408;28;20185;-68
2022/02/28 08:50:37;;;;;;;14.27;11.83;;;9.90;85.20;;;;;;5050259;28;20549;-68
2022/02/28 08:53:03;;;;;;;14.23;11.63;;;10.30;83.50;;;;;;5051999;28;20431;-68
2022/02/28 08:55:28;;;;;;;14.47;12.80;;;10.70;90.20;;;;;;5052065;28;20667;-68
2022/02/28 08:57:54;;;;;;;14.47;12.53;;;11.10;86.80;;;;;;5051702;28;20442;-68
2022/02/28 09:00:20;;;;;;;14.27;12.80;;;11.60;78.80;;;;;;5048548;28;21010;-68
2022/02/28 09:02:45;;;;;;;16.90;11.63;;;12.10;72.70;;;;;;5051194;28;20181;-68
2022/02/28 09:05:11;;;;;;;19.47;14.80;;;12.20;69.20;;;;;;5051036;28;20201;-68
2022/02/28 09:07:37;;;;;;;14.90;13.27;;;12.10;68.60;;;;;;5051731;28;20177;-68
2022/02/28 09:10:04;;;;;;;14.40;12.90;;;12.90;67.20;;;;;;5047607;28;20188;-68
2022/02/28 09:12:29;;;;;;;16.50;12.67;;;12.90;66.20;;;;;;5051335;28;20459;-67
2022/02/28 09:14:55;;;;;;;15.67;13.53;;;13.50;63.40;;;;;;5051031;28;20486;-68
2022/02/28 09:17:21;;;;;;;14.63;12.93;;;14.10;60.80;;;;;;5051085;28;20174;-68
2022/02/28 09:19:46;;;;;;;14.53;12.10;;;14.60;58.90;;;;;;5047537;28;20852;-67
2022/02/28 09:22:12;;;;;;;12.40;11.30;;;15.30;57.20;;;;;;5051196;28;20212;-68
2022/02/28 09:24:37;;;;;;;11.67;10.43;;;15.10;54.60;;;;;;5050688;28;20233;-68
2022/02/28 09:27:04;;;;;;;11.67;10.47;;;15.20;54.30;;;;;;5050475;28;20182;-68
2022/02/28 09:29:30;;;;;;;12.77;11.20;;;16.10;52.00;;;;;;5047879;28;20200;-68
2022/02/28 09:31:57;;;;;;;12.70;11.50;;;16.70;55.80;;;;;;5051113;28;20467;-68
2022/02/28 09:34:22;;;;;;;12.23;10.93;;;16.50;54.90;;;;;;5063830;28;20466;-68
2022/02/28 09:36:51;;;;;;;12.40;11.20;;;16.60;53.60;;;;;;5050979;28;20790;-68
2022/02/28 09:39:17;;;;;;;13.37;12.17;;;16.00;53.70;;;;;;5047444;28;20210;-68
2022/02/28 09:41:42;;;;;;;12.70;11.60;;;15.90;54.00;;;;;;5050912;28;20443;-68
2022/02/28 09:44:08;;;;;;;12.97;11.73;;;16.30;54.30;;;;;;5051167;28;20957;-68
2022/02/28 09:46:34;;;;;;;14.07;12.00;;;16.10;53.50;;;;;;5050682;28;20292;-68
2022/02/28 09:49:02;;;;;;;12.03;11.00;;;16.10;53.10;;;;;;5047377;28;20190;-68
2022/02/28 09:51:27;;;;;;;13.60;12.40;;;16.00;52.40;;;;;;5050917;28;20487;-68
2022/02/28 09:53:53;;;;;;;11.83;10.63;;;16.10;53.00;;;;;;5050617;28;20798;-68
2022/02/28 09:56:23;;;;;;;12.40;11.10;;;16.60;52.50;;;;;;5050563;28;20239;-68
2022/02/28 09:58:49;;;;;;;11.17;10.07;;;17.30;50.00;;;;;;5057754;28;20251;-68
2022/02/28 10:01:15;;;;;;;11.83;10.63;;;18.20;47.10;;;;;;5045835;28;21260;-68
2022/02/28 10:03:40;;;;;;;11.30;10.40;;;16.90;47.50;;;;;;5050529;28;20237;-68
2022/02/28 10:06:06;;;;;;;11.70;10.70;;;17.30;47.50;;;;;;5050227;28;20185;-68
2022/02/28 10:08:42;;;;;;;13.30;12.20;;;17.90;46.70;;;;;;5047312;28;20193;-68
2022/02/28 10:11:29;;;;;;;11.20;10.23;;;17.90;46.60;;;;;;5050488;28;20595;-68
2022/02/28 10:13:56;;;;;;;10.80;9.90;;;18.20;45.90;;;;;;5050356;28;20448;-68
2022/02/28 10:16:36;;;;;;;12.67;11.53;;;18.80;44.00;;;;;;5050553;28;20428;-68
2022/02/28 10:19:05;;;;;;;11.90;10.80;;;19.10;43.20;;;;;;5046839;28;20530;-68
2022/02/28 10:21:51;;;;;;;11.03;10.10;;;18.30;42.00;;;;;;5049491;28;20447;-68
2022/02/28 10:24:38;;;;;;;11.93;10.83;;;18.00;43.10;;;;;;5049776;28;20504;-68
2022/02/28 10:27:06;;;;;;;11.37;10.37;;;17.40;43.00;;;;;;5049603;28;20435;-68
2022/02/28 10:29:35;;;;;;;12.63;11.47;;;16.90;43.00;;;;;;5052919;28;20431;-68
2022/02/28 10:32:09;;;;;;;12.37;11.37;;;17.60;43.00;;;;;;5059266;28;20470;-68
2022/02/28 10:37:21;;;;;;;14.40;12.93;;;18.50;41.70;;;;;;5041175;28;20482;-69
2022/02/28 10:39:57;;;;;;;13.00;11.90;;;19.50;40.60;;;;;;5045501;28;20815;-69
2022/02/28 10:42:24;;;;;;;15.87;14.47;;;19.30;39.80;;;;;;5044608;28;20546;-69
2022/02/28 10:45:24;;;;;;;13.93;12.57;;;18.70;40.80;;;;;;5049252;28;20477;-69
2022/02/28 10:47:52;;;;;;;13.80;12.60;;;18.20;40.50;;;;;;5038749;28;20437;-69
2022/02/28 10:50:39;;;;;;;14.07;11.67;;;17.40;41.20;;;;;;5046835;28;20481;-69
2022/02/28 10:53:30;;;;;;;13.30;12.00;;;17.70;41.40;;;;;;5053649;28;20436;-70
2022/02/28 10:55:55;;;;;;;13.43;12.03;;;17.70;41.20;;;;;;5050446;28;20929;-69
2022/02/28 10:58:26;;;;;;;14.60;13.10;;;16.90;41.80;;;;;;5049021;28;20557;-70
2022/02/28 11:00:54;;;;;;;13.43;12.03;;;17.30;41.10;;;;;;5051341;28;20178;-70
2022/02/28 11:03:20;;;;;;;16.93;13.23;;;16.50;41.60;;;;;;5052016;28;20959;-69
2022/02/28 11:05:54;;;;;;;14.20;12.90;;;16.90;42.40;;;;;;5052012;28;20440;-69
2022/02/28 11:08:21;;;;;;;14.83;13.43;;;16.90;42.70;;;;;;5049840;28;20443;-69
2022/02/28 11:10:48;;;;;;;13.10;11.97;;;18.00;41.70;;;;;;5051470;28;20459;-70
2022/02/28 11:13:14;;;;;;;14.37;13.03;;;18.90;41.10;;;;;;5034499;28;20514;-69
2022/02/28 11:15:40;;;;;;;16.07;13.33;;;18.80;40.80;;;;;;5053237;28;20944;-70
2022/02/28 11:18:10;;;;;;;15.23;13.33;;;19.40;39.00;;;;;;5052692;28;20432;-72
2022/02/28 11:20:36;;;;;;;14.63;13.10;;;20.60;38.70;;;;;;5050497;28;20436;-71
2022/02/28 11:23:04;;;;;;;15.40;14.00;;;20.20;38.00;;;;;;5052252;28;20428;-71
2022/02/28 11:25:30;;;;;;;15.10;13.80;;;19.60;38.90;;;;;;5051310;28;20460;-70
2022/02/28 11:27:58;;;;;;;15.33;14.03;;;19.30;39.10;;;;;;5053837;28;20842;-71
2022/02/28 11:30:27;;;;;;;13.73;12.30;;;20.10;38.90;;;;;;5046901;28;20431;-73
2022/02/28 11:33:05;;;;;;;15.27;13.97;;;20.50;39.10;;;;;;5050388;28;20428;-72
2022/02/28 11:35:50;;;;;;;16.13;14.40;;;19.80;38.90;;;;;;5047836;28;20468;-72
2022/02/28 11:38:15;;;;;;;16.77;14.93;;;21.80;37.60;;;;;;5049702;28;20450;-70
2022/02/28 11:40:44;;;;;;;15.97;13.20;;;23.00;37.20;;;;;;5050566;28;20415;-69
2022/02/28 11:43:12;;;;;;;16.70;14.83;;;23.50;37.90;;;;;;5051378;28;20299;-69
2022/02/28 11:45:57;;;;;;;15.50;13.90;;;24.70;32.70;;;;;;5051435;28;20813;-68
2022/02/28 11:48:35;;;;;;;14.67;13.37;;;25.20;32.70;;;;;;5048848;28;20468;-67
2022/02/28 11:51:01;;;;;;;14.17;12.87;;;26.00;31.20;;;;;;5050556;28;20456;-67
2022/02/28 11:53:37;;;;;;;18.90;14.57;;;26.50;30.20;;;;;;5053107;28;20545;-67
2022/02/28 11:56:23;;;;;;;14.67;13.27;;;24.30;30.70;;;;;;5044376;28;20485;-65
2022/02/28 11:58:49;;;;;;;14.80;13.43;;;23.80;31.10;;;;;;5048037;28;20446;-67
2022/02/28 12:01:17;;;;;;;16.27;14.60;;;23.30;32.40;;;;;;5044735;28;20475;-67
2022/02/28 12:03:50;;;;;;;15.30;12.70;;;24.00;31.60;;;;;;5051571;28;20551;-68
2022/02/28 12:06:53;;;;;;;12.30;11.10;;;23.80;33.00;;;;;;5050995;28;20489;-70
2022/02/28 12:09:33;;;;;;;14.80;13.43;;;24.30;30.00;;;;;;5038783;28;20462;-70
2022/02/28 12:12:20;;;;;;;12.77;11.67;;;23.30;29.60;;;;;;5042655;28;20534;-70
2022/02/28 12:14:55;;;;;;;18.10;12.90;;;19.80;31.80;;;;;;5051184;28;20812;-71
2022/02/28 12:17:42;;;;;;;14.60;13.17;;;19.40;33.30;;;;;;5051189;28;20424;-70
2022/02/28 12:20:29;;;;;;;15.17;13.67;;;20.50;33.20;;;;;;5038251;28;20435;-70
2022/02/28 12:23:05;;;;;;;13.40;12.17;;;20.90;32.40;;;;;;5049663;28;20523;-71
2022/02/28 12:25:51;;;;;;;13.20;11.90;;;22.10;31.20;;;;;;5050988;28;20449;-70
2022/02/28 12:28:20;;;;;;;16.53;15.07;;;22.50;30.30;;;;;;5049594;28;20924;-70
2022/02/28 12:30:48;;;;;;;14.03;12.70;;;23.80;30.00;;;;;;5050106;28;20497;-71
2022/02/28 12:33:19;;;;;;;12.63;11.50;;;25.10;29.40;;;;;;5051262;28;20431;-70
2022/02/28 12:35:57;;;;;;;13.47;12.27;;;25.20;28.80;;;;;;5050722;28;20439;-70
2022/02/28 12:38:28;;;;;;;14.57;13.17;;;25.20;29.00;;;;;;5048480;28;20438;-71